Time;durP1;ratioP1;P1;durP2;ratioP2;P2;SDS_P1;SDS_P2;PMS_P1;PMS_P2;Temp;Humidity;BMP_temperature;BMP_pressure;BME280_temperature;BME280_humidity;BME280_pressure;Samples;Min_cycle;Max_cycle;Signal;HPM_P1;HPM_P2
2021/12/08 00:01:58;;;;;;;5.90;1.20;;;2.80;99.90;;;;;;5115536;28;20043;-83
2021/12/08 00:04:24;;;;;;;2.47;0.98;;;2.70;99.90;;;;;;5114196;28;20028;-83
2021/12/08 00:06:49;;;;;;;4.55;1.33;;;3.00;99.90;;;;;;5115143;27;20047;-82
2021/12/08 00:09:27;;;;;;;4.18;1.60;;;2.60;99.90;;;;;;5096939;28;20535;-86
2021/12/08 00:14:37;;;;;;;2.72;1.30;;;2.90;99.90;;;;;;5115077;28;20132;-84
2021/12/08 00:17:03;;;;;;;4.45;1.45;;;3.00;99.90;;;;;;5115445;27;20075;-83
2021/12/08 00:19:30;;;;;;;6.03;1.63;;;2.20;99.90;;;;;;5114899;28;20044;-83
2021/12/08 00:21:56;;;;;;;3.15;1.30;;;2.20;99.90;;;;;;5096940;27;20066;-84
2021/12/08 00:24:21;;;;;;;4.90;1.63;;;2.10;99.90;;;;;;5114891;27;20055;-84
2021/12/08 00:26:47;;;;;;;4.15;1.50;;;2.50;99.90;;;;;;5115085;27;20134;-83
2021/12/08 00:29:13;;;;;;;7.65;1.80;;;1.40;99.90;;;;;;5112810;27;20553;-84
2021/12/08 00:31:40;;;;;;;7.15;1.70;;;2.10;99.90;;;;;;5093702;27;20079;-83
2021/12/08 00:34:06;;;;;;;6.05;1.80;;;2.10;99.90;;;;;;5114506;27;20134;-83
2021/12/08 00:36:41;;;;;;;7.05;1.98;;;2.80;99.90;;;;;;5122444;27;20499;-84
2021/12/08 00:39:06;;;;;;;3.15;1.80;;;2.20;99.90;;;;;;5107220;28;20047;-85
2021/12/08 00:41:32;;;;;;;8.05;2.13;;;2.50;99.90;;;;;;5114864;28;20396;-87
2021/12/08 00:43:58;;;;;;;7.05;2.33;;;1.90;99.90;;;;;;5114485;27;21160;-84
2021/12/08 00:46:24;;;;;;;6.45;1.77;;;2.10;99.90;;;;;;5122556;27;20044;-89
2021/12/08 00:48:51;;;;;;;4.93;2.33;;;2.50;99.90;;;;;;5114325;28;20373;-88
2021/12/08 00:51:18;;;;;;;6.50;1.83;;;2.10;99.90;;;;;;5095111;28;20159;-85
2021/12/08 00:53:45;;;;;;;8.27;1.77;;;2.10;99.90;;;;;;5114570;27;20055;-85
2021/12/08 00:56:12;;;;;;;12.00;2.63;;;1.50;99.90;;;;;;5114371;28;20432;-89
2021/12/08 00:58:38;;;;;;;6.30;2.03;;;3.00;99.90;;;;;;5122202;27;20036;-88
2021/12/08 01:01:06;;;;;;;8.40;2.30;;;2.50;99.90;;;;;;5116595;27;20081;-85
2021/12/08 01:03:32;;;;;;;5.35;1.58;;;2.10;99.90;;;;;;5119475;27;20055;-84
2021/12/08 01:05:57;;;;;;;4.40;2.10;;;2.40;99.90;;;;;;5121685;27;20043;-82
2021/12/08 01:08:25;;;;;;;6.68;2.45;;;2.10;99.90;;;;;;5114049;28;20051;-83
2021/12/08 01:10:55;;;;;;;6.07;1.90;;;2.10;99.90;;;;;;5114053;27;20043;-85
2021/12/08 01:13:22;;;;;;;4.00;1.90;;;2.20;99.90;;;;;;5113507;27;20471;-83
2021/12/08 01:15:50;;;;;;;4.07;1.35;;;2.50;99.90;;;;;;5121682;27;20369;-85
2021/12/08 01:18:17;;;;;;;4.93;1.80;;;2.20;99.90;;;;;;5105870;28;20077;-82
2021/12/08 01:20:43;;;;;;;6.18;1.50;;;2.90;99.90;;;;;;5078668;28;20058;-83
2021/12/08 01:23:09;;;;;;;7.68;2.00;;;2.90;99.90;;;;;;5113350;28;20065;-82
2021/12/08 01:25:35;;;;;;;5.80;1.65;;;2.30;99.90;;;;;;5121051;27;20039;-84
2021/12/08 01:28:01;;;;;;;3.65;1.40;;;2.40;99.90;;;;;;5113592;27;20043;-86
2021/12/08 01:30:27;;;;;;;8.65;1.95;;;2.30;99.90;;;;;;5095516;28;20047;-85
2021/12/08 01:32:53;;;;;;;6.80;1.80;;;2.90;99.90;;;;;;5121506;27;20126;-83
2021/12/08 01:35:20;;;;;;;4.18;1.60;;;2.50;99.90;;;;;;5113567;28;20533;-84
2021/12/08 01:37:46;;;;;;;5.60;1.60;;;2.60;99.90;;;;;;5113996;28;20398;-83
2021/12/08 01:40:13;;;;;;;4.55;1.58;;;2.90;99.90;;;;;;5113546;27;20039;-82
2021/12/08 01:42:46;;;;;;;6.25;1.40;;;2.50;99.90;;;;;;5113658;28;20491;-84
2021/12/08 01:48:01;;;;;;;2.80;1.27;;;2.90;99.90;;;;;;5112985;27;20082;-84
2021/12/08 01:50:26;;;;;;;4.50;1.48;;;2.70;99.90;;;;;;5113503;27;20184;-85
2021/12/08 01:52:52;;;;;;;3.15;1.33;;;3.10;99.90;;;;;;5094644;28;20530;-83
2021/12/08 01:55:18;;;;;;;5.30;1.30;;;3.20;99.90;;;;;;5113444;27;20047;-82
2021/12/08 01:57:44;;;;;;;3.00;1.20;;;2.70;99.90;;;;;;5095091;28;20120;-82
2021/12/08 02:00:32;;;;;;;6.25;1.60;;;2.70;99.90;;;;;;5122383;27;20047;-83
2021/12/08 02:02:58;;;;;;;2.80;1.45;;;2.70;99.90;;;;;;5116282;27;20071;-82
2021/12/08 02:05:25;;;;;;;5.72;1.30;;;3.10;99.90;;;;;;5105624;28;20043;-85
2021/12/08 02:07:51;;;;;;;3.58;1.63;;;2.80;99.90;;;;;;5095103;28;20057;-87
2021/12/08 02:10:17;;;;;;;5.57;1.30;;;2.80;99.90;;;;;;5113438;28;20047;-84
2021/12/08 02:12:43;;;;;;;3.28;1.58;;;2.90;99.90;;;;;;5113339;28;20035;-87
2021/12/08 02:15:13;;;;;;;6.70;2.03;;;2.90;99.90;;;;;;5112273;28;20093;-83
2021/12/08 02:17:40;;;;;;;3.05;1.40;;;2.90;99.90;;;;;;5113412;28;20123;-85
2021/12/08 02:20:08;;;;;;;5.13;1.75;;;3.50;99.90;;;;;;5112785;28;20569;-85
2021/12/08 02:22:34;;;;;;;4.60;1.33;;;3.00;99.90;;;;;;5087303;28;20067;-92
2021/12/08 02:25:00;;;;;;;5.05;1.33;;;3.90;99.90;;;;;;5120093;28;20082;-85
2021/12/08 02:27:26;;;;;;;10.55;1.73;;;3.00;99.90;;;;;;5095775;28;20056;-87
2021/12/08 02:30:02;;;;;;;2.67;1.55;;;3.10;99.90;;;;;;5117361;27;20044;-91
2021/12/08 02:48:54;;;;;;;4.53;1.65;;;3.10;99.90;;;;;;5111807;27;20063;-82
2021/12/08 02:51:20;;;;;;;5.13;1.70;;;3.20;99.90;;;;;;5117323;27;20040;-81
2021/12/08 02:53:47;;;;;;;3.00;1.60;;;3.10;99.90;;;;;;5120482;27;20449;-85
2021/12/08 02:56:14;;;;;;;3.97;1.92;;;3.20;99.90;;;;;;5104129;28;20039;-82
2021/12/08 02:58:40;;;;;;;3.45;1.48;;;3.90;99.90;;;;;;5116836;28;20119;-83
2021/12/08 03:01:10;;;;;;;4.80;1.88;;;3.20;99.90;;;;;;5116527;27;20119;-83
2021/12/08 03:03:39;;;;;;;3.28;1.50;;;3.20;99.90;;;;;;5116071;27;20040;-83
2021/12/08 03:06:04;;;;;;;5.55;1.63;;;3.10;99.90;;;;;;5111576;28;20131;-84
2021/12/08 03:08:31;;;;;;;3.55;1.40;;;3.90;99.90;;;;;;5116588;27;20480;-81
2021/12/08 03:10:57;;;;;;;3.47;1.45;;;3.20;99.90;;;;;;5116416;27;20035;-82
2021/12/08 03:13:41;;;;;;;3.63;1.52;;;3.30;99.90;;;;;;5124441;27;20103;-82
2021/12/08 03:16:08;;;;;;;6.30;1.50;;;3.10;99.90;;;;;;5116413;28;20035;-85
2021/12/08 03:18:36;;;;;;;2.05;1.20;;;3.40;99.90;;;;;;5116247;28;20047;-84
2021/12/08 03:21:05;;;;;;;2.58;1.25;;;3.20;99.90;;;;;;5115226;27;20107;-82
2021/12/08 03:23:43;;;;;;;2.95;1.45;;;3.10;99.90;;;;;;5105576;27;20085;-82
2021/12/08 03:26:09;;;;;;;3.30;1.15;;;3.10;99.90;;;;;;5116261;27;20036;-82
2021/12/08 03:28:41;;;;;;;1.90;1.10;;;3.10;99.90;;;;;;5115701;27;20411;-84
2021/12/08 03:31:12;;;;;;;4.15;1.30;;;3.70;99.90;;;;;;5097619;28;20484;-83
2021/12/08 03:33:39;;;;;;;3.47;1.40;;;3.20;99.90;;;;;;5123944;27;20517;-84
2021/12/08 03:36:05;;;;;;;2.63;1.52;;;3.20;99.90;;;;;;5097856;28;20052;-83
2021/12/08 03:38:31;;;;;;;3.53;1.33;;;3.20;99.90;;;;;;5115684;27;20039;-84
2021/12/08 03:40:58;;;;;;;3.15;1.60;;;4.20;99.90;;;;;;5115875;27;20047;-85
2021/12/08 03:43:24;;;;;;;2.75;1.50;;;4.10;99.90;;;;;;5113515;27;20031;-86
2021/12/08 03:45:53;;;;;;;3.25;1.98;;;3.30;99.90;;;;;;5115800;27;20043;-82
2021/12/08 03:48:28;;;;;;;4.57;2.22;;;3.30;99.90;;;;;;5115839;28;20067;-84
2021/12/08 03:50:54;;;;;;;3.65;1.75;;;3.30;99.90;;;;;;5097984;28;20040;-84
2021/12/08 03:53:20;;;;;;;3.13;2.00;;;3.30;99.90;;;;;;5122352;27;20032;-86
2021/12/08 03:55:49;;;;;;;3.40;1.85;;;3.50;99.90;;;;;;5115798;27;20078;-88
2021/12/08 03:58:15;;;;;;;3.25;2.22;;;3.80;99.90;;;;;;5115584;28;20073;-81
2021/12/08 04:00:43;;;;;;;2.95;2.00;;;3.70;99.90;;;;;;5115681;27;20081;-83
2021/12/08 04:03:09;;;;;;;4.22;2.60;;;4.10;99.90;;;;;;5115690;27;20047;-85
2021/12/08 04:05:45;;;;;;;3.00;1.92;;;3.50;99.90;;;;;;5097320;28;20074;-82
2021/12/08 04:08:19;;;;;;;3.58;2.03;;;3.50;99.90;;;;;;5108807;27;20499;-85
2021/12/08 04:10:50;;;;;;;5.03;2.90;;;3.90;99.90;;;;;;5098015;27;20088;-81
2021/12/08 04:13:27;;;;;;;3.25;2.50;;;4.90;99.90;;;;;;5102553;27;20123;-83
2021/12/08 04:15:54;;;;;;;4.45;2.60;;;4.30;99.90;;;;;;5116213;27;20047;-84
2021/12/08 04:18:20;;;;;;;3.38;2.78;;;3.60;99.90;;;;;;5115014;27;20122;-85
2021/12/08 04:20:50;;;;;;;5.22;3.60;;;3.60;99.90;;;;;;5114893;28;20127;-87
2021/12/08 04:23:19;;;;;;;4.90;2.92;;;3.70;99.90;;;;;;5114868;27;20058;-88
2021/12/08 04:25:50;;;;;;;5.88;3.28;;;3.70;99.90;;;;;;5123079;27;20074;-87
2021/12/08 04:28:21;;;;;;;5.70;3.40;;;4.00;99.90;;;;;;5122720;27;20035;-90
2021/12/08 04:30:51;;;;;;;5.50;3.10;;;4.10;99.90;;;;;;5096502;27;20059;-91
2021/12/08 04:33:17;;;;;;;4.40;3.00;;;4.10;99.90;;;;;;5119513;27;20491;-89
2021/12/08 04:35:48;;;;;;;5.40;2.65;;;4.00;99.90;;;;;;5098750;27;20145;-86
2021/12/08 04:38:21;;;;;;;4.40;2.50;;;3.70;99.90;;;;;;5122502;27;20387;-87
2021/12/08 04:41:03;;;;;;;2.95;2.50;;;3.90;99.90;;;;;;5096295;28;20059;-89
2021/12/08 04:43:41;;;;;;;6.20;3.38;;;3.70;99.90;;;;;;5096462;28;20039;-88
2021/12/08 04:46:45;;;;;;;3.47;2.45;;;3.80;99.90;;;;;;5113774;28;20038;-89
2021/12/08 05:03:05;;;;;;;5.18;2.95;;;3.80;99.90;;;;;;5114388;27;20050;-84
2021/12/08 05:08:23;;;;;;;5.97;2.78;;;4.50;99.90;;;;;;5115859;27;20105;-90
2021/12/08 05:10:50;;;;;;;5.32;3.53;;;4.20;99.90;;;;;;5125625;27;20068;-88
2021/12/08 05:13:18;;;;;;;6.28;3.40;;;3.80;99.90;;;;;;5115183;27;20492;-90
2021/12/08 05:15:49;;;;;;;4.40;3.47;;;3.90;99.90;;;;;;5119498;27;20103;-89
2021/12/08 05:18:23;;;;;;;7.13;4.05;;;4.30;99.90;;;;;;5116470;27;20043;-82
2021/12/08 05:21:18;;;;;;;3.25;2.70;;;3.90;99.90;;;;;;5100830;28;20407;-90
2021/12/08 05:23:54;;;;;;;4.78;3.25;;;3.90;99.90;;;;;;5104771;27;20056;-94
2021/12/08 05:26:28;;;;;;;7.43;3.45;;;4.10;99.90;;;;;;5121822;27;20043;-88
2021/12/08 05:28:59;;;;;;;5.07;3.65;;;3.90;99.90;;;;;;5113940;28;20125;-89
2021/12/08 05:31:28;;;;;;;5.03;2.95;;;3.90;99.90;;;;;;5121043;27;20038;-88
2021/12/08 05:33:54;;;;;;;4.15;3.50;;;4.00;99.90;;;;;;5114025;27;20039;-83
2021/12/08 05:36:21;;;;;;;6.90;3.97;;;4.30;99.90;;;;;;5113673;27;20189;-83
2021/12/08 05:38:47;;;;;;;6.03;3.67;;;4.10;99.90;;;;;;5078271;28;20154;-87
2021/12/08 05:41:21;;;;;;;4.20;3.80;;;4.30;99.90;;;;;;5113725;28;20046;-82
2021/12/08 05:43:48;;;;;;;4.95;3.70;;;4.60;99.90;;;;;;5113415;27;20040;-82
2021/12/08 05:46:17;;;;;;;3.72;3.00;;;4.80;99.90;;;;;;5113773;28;20130;-86
2021/12/08 05:48:45;;;;;;;5.75;2.85;;;4.80;99.90;;;;;;5113508;27;20106;-84
2021/12/08 05:51:18;;;;;;;4.97;2.90;;;4.20;99.90;;;;;;5113189;27;20511;-87
2021/12/08 05:53:46;;;;;;;4.63;3.88;;;4.20;99.90;;;;;;5113864;27;20051;-85
2021/12/08 05:56:13;;;;;;;5.35;3.90;;;4.60;99.90;;;;;;5113653;28;20116;-84
2021/12/08 05:58:40;;;;;;;4.53;3.30;;;4.20;99.90;;;;;;5113439;27;20071;-83
2021/12/08 06:01:17;;;;;;;6.05;3.13;;;4.30;99.90;;;;;;5094611;28;20043;-82
2021/12/08 06:03:45;;;;;;;6.45;3.35;;;4.90;99.90;;;;;;5112463;27;20044;-87
2021/12/08 06:06:12;;;;;;;5.28;3.28;;;4.40;99.90;;;;;;5113076;27;20411;-83
2021/12/08 06:08:38;;;;;;;4.38;2.95;;;4.40;99.90;;;;;;5110749;27;20036;-86
2021/12/08 06:11:07;;;;;;;4.70;2.85;;;4.70;99.90;;;;;;5102628;28;20058;-82
2021/12/08 06:13:34;;;;;;;7.07;3.35;;;4.40;99.90;;;;;;5113317;28;20385;-82
2021/12/08 06:16:03;;;;;;;6.35;3.00;;;4.50;99.90;;;;;;5112698;28;20040;-84
2021/12/08 06:18:35;;;;;;;5.82;3.10;;;5.30;99.90;;;;;;5112608;28;20036;-82
2021/12/08 06:21:01;;;;;;;8.45;3.38;;;5.40;99.90;;;;;;5109376;28;20129;-84
2021/12/08 06:23:27;;;;;;;7.97;3.33;;;4.50;99.90;;;;;;5094215;28;20071;-86
2021/12/08 06:25:53;;;;;;;4.20;2.97;;;5.40;99.90;;;;;;5113126;28;20084;-88
2021/12/08 06:28:19;;;;;;;5.20;2.97;;;4.40;99.90;;;;;;5129033;28;20073;-88
2021/12/08 06:30:45;;;;;;;5.15;3.28;;;4.60;99.90;;;;;;5120826;28;20432;-82
2021/12/08 06:33:13;;;;;;;5.20;3.38;;;4.60;99.90;;;;;;5101953;28;20035;-88
2021/12/08 06:35:44;;;;;;;4.13;2.78;;;4.60;99.90;;;;;;5113353;28;20039;-89
2021/12/08 06:38:12;;;;;;;4.80;2.80;;;5.00;99.90;;;;;;5113123;28;20039;-87
2021/12/08 06:40:43;;;;;;;5.43;2.47;;;4.60;99.90;;;;;;5112511;28;20079;-89
2021/12/08 06:43:12;;;;;;;5.95;2.72;;;4.70;99.90;;;;;;5093906;28;20375;-89
2021/12/08 06:45:42;;;;;;;5.05;2.83;;;4.80;99.90;;;;;;5112749;28;20055;-90
2021/12/08 06:48:12;;;;;;;7.32;2.97;;;4.70;99.90;;;;;;5112528;28;20051;-86
2021/12/08 06:50:46;;;;;;;6.07;3.17;;;5.40;99.90;;;;;;5118388;28;20097;-90
2021/12/08 06:53:12;;;;;;;4.68;2.63;;;5.90;99.90;;;;;;5113042;28;20071;-89
2021/12/08 06:55:45;;;;;;;7.70;3.50;;;5.40;99.90;;;;;;5113206;28;20044;-89
2021/12/08 06:58:17;;;;;;;6.65;3.05;;;4.80;99.90;;;;;;5105386;28;20391;-91
2021/12/08 07:03:47;;;;;;;6.43;3.17;;;4.90;99.90;;;;;;5094780;28;20054;-92
2021/12/08 07:09:31;;;;;;;5.57;3.42;;;5.40;99.90;;;;;;5013038;28;20147;-89
2021/12/08 07:12:00;;;;;;;6.35;3.60;;;5.00;99.90;;;;;;5011134;28;20112;-87
2021/12/08 07:14:31;;;;;;;6.30;3.42;;;5.40;99.90;;;;;;4996115;28;20494;-91
2021/12/08 07:17:02;;;;;;;5.72;2.72;;;4.90;99.90;;;;;;4997647;28;20050;-91
2021/12/08 07:19:42;;;;;;;8.10;3.30;;;4.90;99.90;;;;;;5021939;28;20125;-91
2021/12/08 07:22:13;;;;;;;3.88;2.58;;;4.90;99.90;;;;;;5014698;28;20080;-86
2021/12/08 07:24:43;;;;;;;7.13;2.88;;;5.40;99.90;;;;;;5010365;28;20065;-91
2021/12/08 07:27:14;;;;;;;4.35;2.95;;;4.80;99.90;;;;;;5025135;28;20050;-90
2021/12/08 07:29:42;;;;;;;3.38;2.13;;;4.90;99.90;;;;;;5013918;28;20046;-87
2021/12/08 07:32:16;;;;;;;8.25;2.60;;;4.80;99.90;;;;;;5014803;28;20052;-87
2021/12/08 07:34:43;;;;;;;4.85;2.50;;;5.50;99.90;;;;;;5024418;28;20449;-86
2021/12/08 07:37:19;;;;;;;5.47;2.90;;;4.80;99.90;;;;;;5026188;28;20049;-86
2021/12/08 07:39:50;;;;;;;3.55;2.28;;;4.80;99.90;;;;;;5020856;28;20042;-84
2021/12/08 07:42:29;;;;;;;4.05;1.92;;;4.90;99.90;;;;;;5010065;28;20034;-82
2021/12/08 07:44:59;;;;;;;3.53;1.83;;;4.80;99.90;;;;;;5017181;28;20038;-82
2021/12/08 07:47:27;;;;;;;6.75;2.33;;;4.80;99.90;;;;;;5116015;27;20036;-90
2021/12/08 07:50:18;;;;;;;8.35;2.35;;;5.10;99.90;;;;;;5115801;27;20811;-85
2021/12/08 07:52:47;;;;;;;6.32;2.38;;;4.60;99.90;;;;;;5051937;28;20053;-86
2021/12/08 07:55:26;;;;;;;6.47;2.60;;;4.60;99.90;;;;;;5052162;28;20064;-86
2021/12/08 07:57:52;;;;;;;4.60;2.20;;;4.60;99.90;;;;;;5052508;28;20049;-87
2021/12/08 08:00:53;;;;;;;4.22;1.80;;;4.90;99.90;;;;;;5052684;28;20541;-90
2021/12/08 08:03:19;;;;;;;2.58;1.40;;;4.60;99.90;;;;;;5005465;28;20045;-89
2021/12/08 08:05:47;;;;;;;3.28;1.58;;;5.10;99.90;;;;;;5012149;28;20120;-86
2021/12/08 08:08:15;;;;;;;3.10;1.40;;;4.20;99.90;;;;;;5012508;28;20050;-85
2021/12/08 08:10:47;;;;;;;3.35;1.50;;;4.40;99.90;;;;;;4993169;28;20110;-85
2021/12/08 08:13:15;;;;;;;3.33;1.38;;;4.90;99.90;;;;;;5011378;28;20093;-88
2021/12/08 08:15:45;;;;;;;5.70;1.50;;;4.50;99.90;;;;;;5012238;28;20049;-85
2021/12/08 08:18:20;;;;;;;3.25;0.95;;;4.50;99.90;;;;;;5012432;28;20133;-87
2021/12/08 08:20:50;;;;;;;6.15;1.33;;;4.50;99.90;;;;;;5011494;28;20079;-92
2021/12/08 08:23:20;;;;;;;3.15;1.10;;;4.80;99.90;;;;;;4998845;28;20057;-84
2021/12/08 08:25:47;;;;;;;6.07;1.13;;;4.50;99.90;;;;;;5015917;28;20064;-81
2021/12/08 08:28:13;;;;;;;6.10;1.80;;;4.90;99.90;;;;;;5013248;28;20042;-85
2021/12/08 08:30:45;;;;;;;1.92;0.90;;;4.60;99.90;;;;;;5012365;28;20133;-84
2021/12/08 08:33:12;;;;;;;4.68;1.10;;;4.60;99.90;;;;;;4995703;28;20054;-84
2021/12/08 08:35:52;;;;;;;3.17;0.93;;;4.60;99.90;;;;;;5012116;28;20050;-85
2021/12/08 08:38:26;;;;;;;2.25;0.98;;;4.60;99.90;;;;;;5011860;28;20096;-85
2021/12/08 08:41:07;;;;;;;2.33;1.15;;;4.90;99.90;;;;;;5085192;28;20401;-81
2021/12/08 08:43:33;;;;;;;6.32;1.42;;;4.80;99.90;;;;;;5086954;28;20074;-84
2021/12/08 08:46:08;;;;;;;6.38;1.55;;;4.80;99.90;;;;;;5075894;28;20048;-83
2021/12/08 08:48:42;;;;;;;6.22;2.08;;;4.70;99.90;;;;;;5093037;28;20438;-83
2021/12/08 08:51:28;;;;;;;3.67;1.23;;;4.70;99.90;;;;;;5075425;28;20557;-88
2021/12/08 08:53:58;;;;;;;5.30;1.30;;;4.80;99.90;;;;;;5086544;28;20418;-81
2021/12/08 08:56:29;;;;;;;2.88;1.15;;;4.80;99.90;;;;;;5092045;28;20043;-80
2021/12/08 08:59:00;;;;;;;4.07;1.38;;;4.80;99.90;;;;;;5075445;28;20523;-81
2021/12/08 09:01:30;;;;;;;2.17;1.17;;;5.50;99.90;;;;;;5075741;28;20477;-81
2021/12/08 09:04:10;;;;;;;3.22;1.08;;;5.20;99.90;;;;;;5093436;28;20123;-81
2021/12/08 09:06:39;;;;;;;4.10;0.90;;;4.80;99.90;;;;;;5075404;28;20127;-81
2021/12/08 09:09:10;;;;;;;4.95;1.13;;;5.00;99.90;;;;;;5093200;28;20044;-82
2021/12/08 09:11:46;;;;;;;2.55;0.90;;;5.10;99.90;;;;;;5093084;28;20102;-87
2021/12/08 09:14:28;;;;;;;5.45;0.88;;;5.10;99.90;;;;;;5085126;28;20048;-93
2021/12/08 09:17:07;;;;;;;10.93;2.20;;;5.20;99.90;;;;;;5093663;28;20048;-90
2021/12/08 09:19:45;;;;;;;7.05;1.38;;;5.20;99.90;;;;;;5094838;28;20080;-91
2021/12/08 09:22:31;;;;;;;4.22;1.30;;;5.30;99.90;;;;;;5093218;28;20086;-80
2021/12/08 09:25:07;;;;;;;4.65;0.98;;;5.30;99.90;;;;;;5105294;28;20056;-82
2021/12/08 09:27:37;;;;;;;3.50;0.98;;;5.30;99.90;;;;;;5122370;27;20040;-79
2021/12/08 09:30:23;;;;;;;5.65;1.02;;;5.80;99.90;;;;;;5114302;27;20032;-82
2021/12/08 09:32:53;;;;;;;3.90;0.88;;;5.30;99.90;;;;;;5107242;27;20043;-83
2021/12/08 09:35:41;;;;;;;3.28;0.73;;;5.20;99.90;;;;;;5096382;28;20123;-80
2021/12/08 09:38:22;;;;;;;2.92;1.02;;;5.70;99.90;;;;;;5089710;28;20040;-80
2021/12/08 09:41:00;;;;;;;6.05;1.05;;;5.20;99.90;;;;;;5113601;27;20114;-81
2021/12/08 09:43:42;;;;;;;8.00;1.00;;;5.60;99.90;;;;;;5113921;28;20044;-87
2021/12/08 09:46:11;;;;;;;3.83;1.10;;;5.20;99.90;;;;;;5113777;28;20397;-83
2021/12/08 09:48:42;;;;;;;6.07;1.00;;;5.30;99.90;;;;;;5095141;28;20050;-86
2021/12/08 09:51:09;;;;;;;5.35;1.02;;;5.50;99.90;;;;;;5113476;28;20483;-82
2021/12/08 09:53:35;;;;;;;6.20;0.95;;;5.30;99.90;;;;;;5095154;28;20043;-83
2021/12/08 09:56:03;;;;;;;4.80;1.13;;;5.30;99.90;;;;;;5113834;28;20067;-84
2021/12/08 09:58:29;;;;;;;3.40;0.90;;;5.30;99.90;;;;;;5095786;28;20168;-85
2021/12/08 10:00:59;;;;;;;6.25;0.85;;;5.40;99.90;;;;;;5095930;28;20051;-78
2021/12/08 10:03:25;;;;;;;6.75;1.33;;;5.30;99.90;;;;;;5113336;28;20542;-81
2021/12/08 10:05:52;;;;;;;5.00;0.90;;;5.30;99.90;;;;;;5078674;28;20039;-81
2021/12/08 10:08:18;;;;;;;3.80;0.98;;;5.40;99.90;;;;;;5113557;28;20035;-81
2021/12/08 10:10:45;;;;;;;3.58;0.80;;;5.70;99.90;;;;;;5095220;28;20089;-82
2021/12/08 10:13:12;;;;;;;8.23;1.38;;;5.50;99.90;;;;;;5095051;28;20044;-82
2021/12/08 10:15:38;;;;;;;5.90;1.10;;;6.00;99.90;;;;;;5113650;28;20128;-82
2021/12/08 10:18:05;;;;;;;3.70;0.90;;;6.10;99.90;;;;;;5113165;28;20093;-83
2021/12/08 10:20:39;;;;;;;2.53;1.02;;;5.70;99.90;;;;;;5113368;28;20040;-81
2021/12/08 10:23:23;;;;;;;1.92;0.75;;;5.60;99.90;;;;;;5112994;28;20048;-83
2021/12/08 10:25:53;;;;;;;3.72;0.80;;;6.10;99.90;;;;;;5113295;28;20083;-82
2021/12/08 10:28:25;;;;;;;7.32;1.45;;;6.50;99.90;;;;;;5113076;28;20121;-83
2021/12/08 10:30:57;;;;;;;10.85;1.45;;;5.70;99.90;;;;;;5113250;28;20046;-86
2021/12/08 10:33:51;;;;;;;3.88;0.80;;;5.80;99.90;;;;;;5113153;28;20044;-80
2021/12/08 10:36:47;;;;;;;9.73;1.55;;;5.80;99.90;;;;;;5113104;28;20040;-81
2021/12/08 10:39:21;;;;;;;4.18;1.02;;;5.80;99.90;;;;;;5095081;28;20080;-82
2021/12/08 10:41:55;;;;;;;2.47;1.00;;;5.90;99.90;;;;;;5113182;28;20047;-80
2021/12/08 10:44:28;;;;;;;2.65;1.08;;;5.90;99.90;;;;;;5112936;28;20511;-84
2021/12/08 10:46:57;;;;;;;6.20;0.90;;;6.40;99.90;;;;;;5112959;28;20044;-80
2021/12/08 10:54:44;;;;;;;5.78;1.15;;;6.00;99.90;;;;;;5117173;28;20048;-80
2021/12/08 10:57:27;;;;;;;4.70;0.90;;;6.60;99.90;;;;;;5116829;28;20039;-84
2021/12/08 10:59:54;;;;;;;3.85;1.27;;;6.10;99.90;;;;;;5116889;28;20109;-81
2021/12/08 11:02:45;;;;;;;3.53;0.93;;;6.10;99.90;;;;;;5098588;28;20080;-82
2021/12/08 11:05:28;;;;;;;2.47;0.77;;;6.10;99.90;;;;;;5116755;28;20047;-80
2021/12/08 11:08:03;;;;;;;3.55;0.80;;;6.70;99.90;;;;;;5098336;28;20054;-82
2021/12/08 11:10:32;;;;;;;3.00;0.70;;;6.10;99.90;;;;;;5098404;28;20043;-82
2021/12/08 11:13:00;;;;;;;5.00;1.08;;;6.70;99.90;;;;;;5098348;28;20044;-81
2021/12/08 11:15:28;;;;;;;2.92;0.80;;;6.20;99.90;;;;;;5116822;28;20040;-81
2021/12/08 11:18:13;;;;;;;3.08;1.13;;;6.50;99.90;;;;;;5116602;28;20097;-81
2021/12/08 11:21:01;;;;;;;6.05;0.90;;;6.30;99.90;;;;;;5098275;28;20173;-80
2021/12/08 11:23:42;;;;;;;3.42;1.05;;;6.40;99.90;;;;;;5081408;28;20059;-80
2021/12/08 11:26:23;;;;;;;3.30;1.65;;;6.40;99.90;;;;;;5098414;28;20050;-82
2021/12/08 11:28:52;;;;;;;3.38;0.60;;;6.40;99.90;;;;;;5116241;28;20538;-83
2021/12/08 11:31:19;;;;;;;4.32;0.52;;;6.50;99.90;;;;;;5098005;28;20058;-81
2021/12/08 11:33:58;;;;;;;7.32;1.00;;;6.80;99.90;;;;;;5116444;28;20483;-81
2021/12/08 11:36:25;;;;;;;2.42;0.70;;;6.80;99.90;;;;;;5097793;28;20090;-82
2021/12/08 11:38:51;;;;;;;3.88;0.80;;;6.50;99.90;;;;;;5116407;28;20067;-83
2021/12/08 11:41:25;;;;;;;4.95;0.90;;;6.50;99.90;;;;;;5116139;28;20432;-81
2021/12/08 11:43:56;;;;;;;4.20;0.80;;;6.50;99.90;;;;;;5097796;28;20043;-81
2021/12/08 11:46:23;;;;;;;4.40;0.75;;;6.50;99.90;;;;;;5115985;28;20100;-83
2021/12/08 11:49:04;;;;;;;5.47;0.80;;;6.40;99.90;;;;;;5115864;28;20051;-83
2021/12/08 11:51:32;;;;;;;3.85;0.82;;;6.90;99.90;;;;;;5115885;28;20043;-82
2021/12/08 11:53:59;;;;;;;2.90;0.80;;;6.40;99.90;;;;;;5116213;28;20051;-85
2021/12/08 11:56:36;;;;;;;5.75;0.93;;;6.40;99.90;;;;;;5097483;28;20148;-82
2021/12/08 11:59:05;;;;;;;4.40;0.77;;;6.90;99.90;;;;;;5115685;28;20070;-81
2021/12/08 12:01:31;;;;;;;2.20;0.73;;;6.40;99.90;;;;;;5114579;28;20032;-84
2021/12/08 12:03:57;;;;;;;2.92;0.60;;;6.60;99.90;;;;;;5097317;28;20389;-86
2021/12/08 12:06:27;;;;;;;2.88;0.60;;;6.40;99.90;;;;;;5115702;28;20081;-83
2021/12/08 12:08:59;;;;;;;2.60;0.77;;;6.80;99.90;;;;;;5115564;28;20563;-87
2021/12/08 12:11:29;;;;;;;2.88;0.60;;;7.40;99.90;;;;;;5115343;28;20043;-90
2021/12/08 12:13:56;;;;;;;8.05;0.70;;;6.40;99.90;;;;;;5115486;28;20506;-88
2021/12/08 12:16:23;;;;;;;5.25;0.70;;;6.40;99.90;;;;;;5115788;28;20069;-91
2021/12/08 12:18:53;;;;;;;5.95;2.10;;;6.40;99.90;;;;;;5115583;28;20505;-89
2021/12/08 12:21:34;;;;;;;3.83;0.70;;;6.40;99.90;;;;;;5115370;28;20040;-89
2021/12/08 12:24:28;;;;;;;4.53;0.80;;;6.40;99.90;;;;;;5115127;28;20050;-87
2021/12/08 12:27:24;;;;;;;3.10;0.68;;;6.30;99.90;;;;;;5097408;28;20431;-83
2021/12/08 12:30:04;;;;;;;1.42;0.93;;;6.30;99.90;;;;;;5115016;28;20047;-89
2021/12/08 12:32:50;;;;;;;3.80;1.10;;;6.20;99.90;;;;;;5096817;28;20043;-88
2021/12/08 12:35:19;;;;;;;;;;;6.20;99.90;;;;;;5114581;27;20484;-88
2021/12/08 12:37:45;;;;;;;5.90;1.25;;;6.20;99.90;;;;;;5096974;28;19974;-85
2021/12/08 12:40:17;;;;;;;1.90;0.73;;;6.40;99.90;;;;;;5096794;28;20160;-89
2021/12/08 12:42:50;;;;;;;4.40;1.05;;;6.20;99.90;;;;;;5115544;27;20534;-86
2021/12/08 12:45:17;;;;;;;1.85;0.80;;;6.20;99.90;;;;;;5088885;28;20123;-88
2021/12/08 12:48:03;;;;;;;2.92;0.80;;;6.40;99.90;;;;;;5115179;28;20040;-89
2021/12/08 12:50:29;;;;;;;;;;;6.20;99.90;;;;;;5097477;28;20177;-87
2021/12/08 12:53:00;;;;;;;5.70;1.23;;;6.80;99.90;;;;;;5114539;27;20419;-86
2021/12/08 12:55:31;;;;;;;2.50;0.85;;;6.20;99.90;;;;;;5114577;27;20042;-89
2021/12/08 12:58:03;;;;;;;4.50;1.00;;;6.80;99.90;;;;;;5096543;28;20590;-83
2021/12/08 13:01:04;;;;;;;5.65;0.90;;;6.60;99.90;;;;;;5096265;28;20043;-84
2021/12/08 13:03:47;;;;;;;4.13;1.08;;;6.10;99.90;;;;;;5091606;28;20043;-92
2021/12/08 13:06:33;;;;;;;3.42;0.90;;;6.10;99.90;;;;;;5114395;28;20477;-81
2021/12/08 13:08:59;;;;;;;1.98;0.90;;;6.10;99.90;;;;;;5114417;27;20071;-90
2021/12/08 13:11:35;;;;;;;3.10;1.08;;;6.70;99.90;;;;;;5113931;28;20031;-91
2021/12/08 13:14:03;;;;;;;3.65;1.10;;;6.10;99.90;;;;;;5114432;27;20051;-91
2021/12/08 13:16:35;;;;;;;1.17;0.80;;;6.10;99.90;;;;;;5106204;27;20396;-92
2021/12/08 13:19:06;;;;;;;3.40;1.00;;;6.30;99.90;;;;;;5114473;28;20050;-90
2021/12/08 13:21:49;;;;;;;4.45;0.85;;;6.10;99.90;;;;;;5106252;27;20392;-84
2021/12/08 13:24:34;;;;;;;4.25;0.82;;;6.10;99.90;;;;;;5113672;28;20051;-87
2021/12/08 13:27:02;;;;;;;3.20;0.80;;;6.10;99.90;;;;;;5113898;27;20101;-90
2021/12/08 13:29:31;;;;;;;3.25;0.93;;;6.10;99.90;;;;;;5113990;27;20039;-85
2021/12/08 13:32:09;;;;;;;3.10;0.95;;;6.80;99.90;;;;;;5113890;28;20055;-86
2021/12/08 13:34:38;;;;;;;2.35;0.75;;;6.40;99.90;;;;;;5113890;27;20051;-87
2021/12/08 13:37:23;;;;;;;3.60;0.70;;;6.10;99.90;;;;;;5113614;28;20118;-87
2021/12/08 13:39:52;;;;;;;4.97;1.20;;;6.00;99.90;;;;;;5105736;27;20100;-90
2021/12/08 13:42:30;;;;;;;4.60;0.68;;;6.00;99.90;;;;;;5111639;28;20043;-86
2021/12/08 13:44:57;;;;;;;5.60;0.85;;;6.00;99.90;;;;;;5095957;28;20404;-86
2021/12/08 13:47:25;;;;;;;4.30;1.25;;;6.00;99.90;;;;;;5113609;28;20054;-88
2021/12/08 13:50:09;;;;;;;2.85;0.80;;;6.00;99.90;;;;;;5096238;28;20092;-86
2021/12/08 13:52:38;;;;;;;3.05;0.93;;;5.90;99.90;;;;;;5113370;27;20048;-88
2021/12/08 13:55:07;;;;;;;2.67;0.80;;;6.20;99.90;;;;;;5085223;28;20043;-90
2021/12/08 13:57:42;;;;;;;3.53;0.68;;;6.00;99.90;;;;;;5094989;28;20500;-85
2021/12/08 14:00:25;;;;;;;3.38;0.80;;;6.10;99.90;;;;;;5088034;28;20097;-91
2021/12/08 14:03:04;;;;;;;2.95;0.77;;;6.10;99.90;;;;;;5115422;28;20050;-86
2021/12/08 14:05:40;;;;;;;5.28;0.95;;;5.90;99.90;;;;;;5098798;28;20492;-83
2021/12/08 14:08:17;;;;;;;4.60;0.77;;;5.90;99.90;;;;;;5109375;28;20039;-89
2021/12/08 14:10:47;;;;;;;3.25;0.70;;;5.90;99.90;;;;;;5116944;28;20446;-90